Time;durP1;ratioP1;P1;durP2;ratioP2;P2;SDS_P1;SDS_P2;PMS_P1;PMS_P2;Temp;Humidity;BMP_temperature;BMP_pressure;BME280_temperature;BME280_humidity;BME280_pressure;Samples;Min_cycle;Max_cycle;Signal;HPM_P1;HPM_P2
2024/03/08 00:01:39;;;;;;;25.90;11.93;;;;;;;2.74;100.00;98754.56;5032915;28;20320;-80
2024/03/08 00:04:06;;;;;;;27.02;11.38;;;;;;;2.79;100.00;98749.59;5033995;28;20017;-81
2024/03/08 00:06:31;;;;;;;22.27;10.95;;;;;;;2.70;100.00;98734.50;5034247;28;20017;-80
2024/03/08 00:08:56;;;;;;;23.50;10.85;;;;;;;2.76;100.00;98748.09;5043217;28;20787;-80
2024/03/08 00:11:22;;;;;;;21.08;10.35;;;;;;;2.74;100.00;98744.72;5039481;28;20021;-80
2024/03/08 00:13:48;;;;;;;23.40;11.25;;;;;;;2.71;100.00;98731.69;5034117;28;20027;-79
2024/03/08 00:16:13;;;;;;;21.77;10.48;;;;;;;2.70;100.00;98732.69;5031254;28;20017;-80
2024/03/08 00:18:38;;;;;;;23.27;10.35;;;;;;;2.37;100.00;98684.34;5031891;28;20051;-79
2024/03/08 00:21:04;;;;;;;25.10;11.27;;;;;;;2.60;100.00;98714.06;5034417;28;20025;-80
2024/03/08 00:23:29;;;;;;;22.50;10.95;;;;;;;2.59;100.00;98722.22;5050530;28;20086;-79
2024/03/08 00:25:55;;;;;;;24.92;11.52;;;;;;;2.57;100.00;98719.72;5050146;28;20020;-79
2024/03/08 00:28:21;;;;;;;22.55;10.55;;;;;;;2.72;100.00;98749.38;5047243;28;20443;-79
2024/03/08 00:30:46;;;;;;;24.35;11.60;;;;;;;2.35;100.00;98694.31;5050741;28;20017;-80
2024/03/08 00:33:11;;;;;;;21.95;10.30;;;;;;;2.57;100.00;98718.91;5052037;28;20020;-80
2024/03/08 00:35:37;;;;;;;25.30;11.57;;;;;;;2.68;100.00;98741.84;5030413;28;20021;-79
2024/03/08 00:38:02;;;;;;;21.67;11.25;;;;;;;2.47;100.00;98704.78;5039248;28;20027;-79
2024/03/08 00:40:28;;;;;;;23.05;10.60;;;;;;;2.49;100.00;98717.00;5032798;28;20044;-80
2024/03/08 00:42:54;;;;;;;24.83;11.65;;;;;;;2.25;100.00;98677.53;5030674;28;20021;-79
2024/03/08 00:45:19;;;;;;;24.85;10.65;;;;;;;2.34;100.00;98695.31;5053236;28;20067;-81
2024/03/08 00:47:45;;;;;;;26.60;11.82;;;;;;;2.26;100.00;98684.59;5030000;28;20383;-79
2024/03/08 00:50:10;;;;;;;27.08;10.80;;;;;;;2.32;100.00;98699.97;5048932;28;20081;-79
2024/03/08 00:52:37;;;;;;;22.95;10.93;;;;;;;2.35;100.00;98691.66;5027918;28;20328;-79
2024/03/08 00:55:02;;;;;;;23.55;10.85;;;;;;;2.44;100.00;98702.41;5013180;28;20375;-80
2024/03/08 00:57:27;;;;;;;22.80;10.40;;;;;;;2.42;100.00;98698.06;5048328;28;20021;-80
2024/03/08 00:59:53;;;;;;;23.88;11.02;;;;;;;2.35;100.00;98686.31;5051084;28;20262;-79
2024/03/08 01:02:19;;;;;;;27.20;11.35;;;;;;;2.47;100.00;98696.78;5032494;28;20020;-79
2024/03/08 01:04:44;;;;;;;21.48;10.48;;;;;;;2.35;100.00;98664.97;5051492;28;20025;-79
2024/03/08 01:07:10;;;;;;;25.55;11.02;;;;;;;2.59;100.00;98696.38;5046882;23;20049;-55
2024/03/08 01:09:36;;;;;;;24.58;10.63;;;;;;;2.60;100.00;98697.22;5072795;28;20024;-55
2024/03/08 01:12:01;;;;;;;23.10;10.73;;;;;;;2.54;100.00;98688.00;5082097;28;20027;-55
2024/03/08 01:14:27;;;;;;;26.30;10.57;;;;;;;2.60;100.00;98694.53;5080181;28;20529;-55
2024/03/08 01:16:52;;;;;;;24.67;11.35;;;;;;;2.60;100.00;98691.88;5077044;28;20127;-55
2024/03/08 01:19:17;;;;;;;24.05;10.48;;;;;;;2.54;100.00;98687.13;5084751;28;20047;-56
2024/03/08 01:21:43;;;;;;;21.48;9.88;;;;;;;2.52;100.00;98683.81;5085097;28;20055;-56
2024/03/08 01:24:09;;;;;;;21.15;10.65;;;;;;;2.53;100.00;98680.13;5072293;28;20214;-55
2024/03/08 01:26:34;;;;;;;20.25;9.23;;;;;;;2.58;100.00;98675.16;5088986;28;20024;-56
2024/03/08 01:29:02;;;;;;;22.35;10.70;;;;;;;2.54;100.00;98676.44;5094504;28;20020;-56
2024/03/08 01:31:29;;;;;;;16.88;7.78;;;;;;;2.51;100.00;98674.94;5093327;28;20024;-56
2024/03/08 01:33:55;;;;;;;23.45;10.07;;;;;;;2.47;100.00;98670.91;5091116;28;20505;-56
2024/03/08 01:36:21;;;;;;;19.88;9.20;;;;;;;2.30;100.00;98653.06;5093841;22;20060;-77
2024/03/08 01:38:46;;;;;;;22.33;10.70;;;;;;;2.40;100.00;98670.66;5032443;28;20014;-76
2024/03/08 01:41:13;;;;;;;24.20;10.80;;;;;;;2.01;100.00;98619.47;5034593;28;20332;-77
2024/03/08 01:43:38;;;;;;;25.73;10.95;;;;;;;2.12;100.00;98635.25;5061993;28;20063;-77
2024/03/08 01:46:05;;;;;;;27.55;10.63;;;;;;;2.12;100.00;98639.72;5036711;28;20247;-76
2024/03/08 01:48:31;;;;;;;22.92;10.57;;;;;;;2.20;100.00;98645.13;5056004;28;20056;-76
2024/03/08 01:50:57;;;;;;;25.17;10.55;;;;;;;2.26;100.00;98651.72;5037329;28;20026;-76
2024/03/08 01:53:24;;;;;;;23.48;10.30;;;;;;;2.16;100.00;98638.44;5044376;28;20025;-76
2024/03/08 01:55:53;;;;;;;21.27;10.40;;;;;;;2.20;100.00;98647.81;5045210;28;20392;-77
2024/03/08 01:58:20;;;;;;;;;;;;;;;2.13;100.00;98647.59;5027847;28;20022;-77
2024/03/08 02:00:49;;;;;;;25.55;10.63;;;;;;;2.13;100.00;98644.09;5038795;28;19909;-78
2024/03/08 02:03:14;;;;;;;22.10;9.45;;;;;;;2.10;100.00;98639.91;5029896;28;20021;-77
2024/03/08 02:05:41;;;;;;;27.63;11.30;;;;;;;2.04;100.00;98627.16;5066090;28;20037;-77
2024/03/08 02:08:07;;;;;;;27.65;11.50;;;;;;;2.03;100.00;98619.31;5068919;22;20052;-79
2024/03/08 02:10:33;;;;;;;24.45;10.82;;;;;;;1.98;100.00;98620.59;5089614;28;20028;-79
2024/03/08 02:13:01;;;;;;;29.15;10.93;;;;;;;1.96;100.00;98614.63;5095770;28;20028;-78
2024/03/08 02:15:50;;;;;;;23.58;10.65;;;;;;;1.95;100.00;98618.25;5092882;28;20029;-78
2024/03/08 02:18:17;;;;;;;27.17;8.98;;;;;;;1.91;100.00;98614.22;5091906;28;20023;-78
2024/03/08 02:20:42;;;;;;;25.25;10.82;;;;;;;1.88;100.00;98611.84;5087483;28;20346;-79
2024/03/08 02:23:08;;;;;;;23.92;11.45;;;;;;;1.91;100.00;98611.56;5087427;28;20025;-78
2024/03/08 02:25:33;;;;;;;21.90;10.02;;;;;;;1.81;100.00;98604.59;5091626;28;20024;-78
2024/03/08 02:27:58;;;;;;;23.20;11.07;;;;;;;1.67;100.00;98598.81;5088144;28;20354;-78
2024/03/08 02:30:25;;;;;;;27.63;12.02;;;;;;;1.59;100.00;98589.91;5091270;28;20032;-78
2024/03/08 02:32:50;;;;;;;24.17;11.73;;;;;;;1.59;100.00;98600.56;5106456;28;20030;-78
2024/03/08 02:35:16;;;;;;;29.77;11.43;;;;;;;1.58;100.00;98590.91;5095025;28;20011;-79
2024/03/08 02:37:41;;;;;;;26.38;11.15;;;;;;;1.61;100.00;98594.09;5107410;28;20250;-78
2024/03/08 02:40:07;;;;;;;28.27;11.60;;;;;;;1.58;100.00;98577.56;5088715;28;20050;-78
2024/03/08 02:42:32;;;;;;;29.83;11.27;;;;;;;1.63;100.00;98576.13;5104006;28;20051;-78
2024/03/08 02:44:58;;;;;;;26.10;10.52;;;;;;;1.64;100.00;98571.63;5113524;28;20038;-79
2024/03/08 02:47:23;;;;;;;22.23;10.88;;;;;;;1.64;100.00;98583.13;5095358;28;20045;-78
2024/03/08 02:49:50;;;;;;;24.77;11.18;;;;;;;1.49;100.00;98552.63;5089999;28;20020;-78
2024/03/08 02:52:16;;;;;;;23.05;10.40;;;;;;;1.59;100.00;98569.41;5104609;28;20020;-78
2024/03/08 02:54:41;;;;;;;25.40;9.98;;;;;;;1.50;100.00;98565.84;5092525;28;20030;-78
2024/03/08 02:57:07;;;;;;;25.25;10.55;;;;;;;1.54;100.00;98558.34;5096647;28;20019;-78
2024/03/08 02:59:33;;;;;;;24.88;10.38;;;;;;;1.39;100.00;98547.41;5106852;28;20205;-78
2024/03/08 03:01:58;;;;;;;28.45;12.43;;;;;;;1.38;100.00;98540.38;5093208;28;20044;-78
2024/03/08 03:04:23;;;;;;;29.83;11.27;;;;;;;1.50;100.00;98557.00;5085451;28;20030;-78
2024/03/08 03:06:49;;;;;;;26.67;10.98;;;;;;;1.51;100.00;98570.16;5092420;28;20028;-79
2024/03/08 03:09:16;;;;;;;29.05;11.18;;;;;;;1.46;100.00;98542.28;5110424;28;20083;-78
2024/03/08 03:11:44;;;;;;;29.23;11.68;;;;;;;1.49;100.00;98547.31;5085382;28;20024;-78
2024/03/08 03:14:09;;;;;;;27.65;10.95;;;;;;;1.54;100.00;98556.53;5087708;28;20016;-79
2024/03/08 03:16:35;;;;;;;23.98;10.75;;;;;;;1.54;100.00;98556.53;5086606;28;20026;-78
2024/03/08 03:19:01;;;;;;;24.95;10.75;;;;;;;1.48;100.00;98546.47;5090530;28;20087;-78
2024/03/08 03:21:31;;;;;;;21.88;10.90;;;;;;;1.49;100.00;98552.63;5086330;28;20058;-78
2024/03/08 03:23:56;;;;;;;24.83;11.13;;;;;;;1.44;100.00;98533.59;5088087;28;20095;-78
2024/03/08 03:26:22;;;;;;;28.60;11.23;;;;;;;1.53;100.00;98546.84;5087088;28;20047;-79
2024/03/08 03:28:48;;;;;;;27.25;11.82;;;;;;;1.37;100.00;98532.56;5087286;28;20201;-78
2024/03/08 03:31:14;;;;;;;22.33;10.57;;;;;;;1.37;100.00;98541.38;5088580;28;20020;-78
2024/03/08 03:33:40;;;;;;;23.90;11.35;;;;;;;1.40;100.00;98533.06;5093969;28;20254;-78
2024/03/08 03:36:05;;;;;;;25.08;11.02;;;;;;;1.31;100.00;98529.50;5086848;28;20028;-78
2024/03/08 03:38:31;;;;;;;23.00;10.50;;;;;;;1.39;100.00;98528.75;5086369;28;20020;-78
2024/03/08 03:41:04;;;;;;;24.17;10.77;;;;;;;1.43;100.00;98543.44;5089306;28;20023;-79
2024/03/08 03:43:29;;;;;;;19.90;10.23;;;;;;;1.38;100.00;98534.22;5084657;28;20028;-78
2024/03/08 03:45:55;;;;;;;28.13;11.50;;;;;;;1.30;100.00;98516.31;5107722;28;20065;-78
2024/03/08 03:48:21;;;;;;;24.77;11.02;;;;;;;1.31;100.00;98520.66;5086664;28;20020;-78
2024/03/08 03:50:48;;;;;;;24.52;10.82;;;;;;;1.41;100.00;98539.22;5090912;28;20028;-78
2024/03/08 03:53:13;;;;;;;24.80;11.45;;;;;;;1.39;100.00;98526.06;5084114;28;20042;-78
2024/03/08 03:55:39;;;;;;;25.75;11.80;;;;;;;1.36;100.00;98514.88;5085544;28;20330;-78
2024/03/08 03:58:04;;;;;;;21.27;10.27;;;;;;;1.43;100.00;98523.94;5089875;28;20305;-78
2024/03/08 04:00:29;;;;;;;27.30;12.38;;;;;;;1.17;100.00;98494.53;5085534;28;20027;-78
2024/03/08 04:02:58;;;;;;;28.77;11.30;;;;;;;1.28;100.00;98519.16;5086251;28;20047;-78
2024/03/08 04:05:24;;;;;;;24.63;10.63;;;;;;;1.16;100.00;98490.19;5088747;28;20027;-79
2024/03/08 04:07:49;;;;;;;25.23;10.95;;;;;;;1.36;100.00;98517.53;5102564;28;20302;-78
2024/03/08 04:10:14;;;;;;;28.23;12.52;;;;;;;1.36;100.00;98523.69;5086230;28;20087;-78
2024/03/08 04:12:40;;;;;;;20.13;10.05;;;;;;;1.35;100.00;98524.69;5088239;28;20219;-78
2024/03/08 04:15:08;;;;;;;25.60;11.52;;;;;;;1.38;100.00;98534.22;5086299;28;20016;-78
2024/03/08 04:17:37;;;;;;;27.13;11.85;;;;;;;1.26;100.00;98518.44;5086126;28;20024;-78
2024/03/08 04:20:08;;;;;;;23.05;11.35;;;;;;;1.29;100.00;98525.31;5086854;28;20030;-78
2024/03/08 04:22:35;;;;;;;24.85;9.68;;;;;;;1.20;100.00;98510.22;5087667;28;20319;-78
2024/03/08 04:25:02;;;;;;;27.85;11.38;;;;;;;1.24;100.00;98522.25;5109951;28;20061;-78
2024/03/08 04:27:27;;;;;;;26.77;11.15;;;;;;;1.09;100.00;98501.44;5086070;28;20032;-78
2024/03/08 04:29:52;;;;;;;26.60;10.98;;;;;;;1.03;100.00;98487.91;5087612;28;20073;-78
2024/03/08 04:32:17;;;;;;;29.20;11.43;;;;;;;1.24;100.00;98527.59;5086572;28;20024;-79
2024/03/08 04:34:44;;;;;;;26.40;11.15;;;;;;;0.94;100.00;98492.28;5085815;28;20330;-79
2024/03/08 04:37:13;;;;;;;27.98;11.65;;;;;;;1.12;100.00;98510.97;5084404;28;20114;-78
2024/03/08 04:39:38;;;;;;;24.30;10.80;;;;;;;1.12;100.00;98513.63;5088830;28;20016;-78
2024/03/08 04:42:06;;;;;;;31.38;12.30;;;;;;;1.17;100.00;98523.84;5083299;28;20032;-78
2024/03/08 04:44:33;;;;;;;25.40;11.40;;;;;;;0.96;100.00;98482.31;5094010;28;20027;-79
2024/03/08 04:46:58;;;;;;;25.30;11.38;;;;;;;1.24;100.00;98524.91;5102940;28;20020;-78
2024/03/08 04:49:24;;;;;;;25.00;11.05;;;;;;;0.98;100.00;98480.34;5099572;28;20095;-79
2024/03/08 04:51:50;;;;;;;24.90;10.90;;;;;;;1.15;100.00;98523.16;5087253;28;20464;-79
2024/03/08 04:54:16;;;;;;;26.10;10.73;;;;;;;0.98;100.00;98507.00;5085397;28;20047;-79
2024/03/08 04:56:41;;;;;;;28.70;11.65;;;;;;;1.02;100.00;98500.41;5088627;28;20032;-78
2024/03/08 04:59:08;;;;;;;27.70;11.05;;;;;;;1.02;100.00;98505.72;5084299;28;20215;-79
2024/03/08 05:01:34;;;;;;;30.15;12.30;;;;;;;0.83;100.00;98485.34;5089836;28;20313;-78
2024/03/08 05:03:59;;;;;;;30.02;12.48;;;;;;;0.95;100.00;98496.66;5087874;28;20099;-79
2024/03/08 05:06:24;;;;;;;28.08;11.55;;;;;;;0.93;100.00;98495.94;5084468;28;20023;-79
2024/03/08 05:08:49;;;;;;;25.83;11.55;;;;;;;1.01;100.00;98512.00;5087215;28;20070;-78
2024/03/08 05:11:15;;;;;;;27.30;11.63;;;;;;;0.96;100.00;98503.63;5080139;28;20028;-79
2024/03/08 05:13:41;;;;;;;27.40;11.52;;;;;;;0.88;100.00;98498.22;5103272;28;20060;-79
2024/03/08 05:16:07;;;;;;;28.77;12.23;;;;;;;1.01;100.00;98509.34;5083253;28;20024;-79
2024/03/08 05:18:33;;;;;;;26.92;12.25;;;;;;;0.94;100.00;98489.63;5084334;28;20197;-79
2024/03/08 05:20:58;;;;;;;30.70;12.65;;;;;;;0.78;100.00;98468.16;5091965;28;20061;-79
2024/03/08 05:23:24;;;;;;;29.00;11.60;;;;;;;0.96;100.00;98500.13;5112847;28;20091;-79
2024/03/08 05:25:50;;;;;;;27.90;12.35;;;;;;;0.73;100.00;98470.41;5092023;28;20020;-79
2024/03/08 05:28:15;;;;;;;28.25;12.45;;;;;;;0.82;100.00;98486.34;5081713;28;20267;-79
2024/03/08 05:30:41;;;;;;;30.33;11.77;;;;;;;1.01;100.00;98498.69;5086071;28;20095;-79
2024/03/08 05:33:10;;;;;;;32.08;13.10;;;;;;;0.98;100.00;98492.84;5085554;28;20090;-79
2024/03/08 05:35:36;;;;;;;27.15;11.90;;;;;;;0.99;100.00;98484.69;5091468;28;20092;-79
2024/03/08 05:38:01;;;;;;;28.38;11.90;;;;;;;1.03;100.00;98488.75;5104131;28;20024;-79
2024/03/08 05:40:33;;;;;;;25.45;13.35;;;;;;;1.06;100.00;98488.44;5093497;28;20051;-80
2024/03/08 05:42:59;;;;;;;28.70;13.38;;;;;;;1.05;100.00;98502.75;5089103;22;20101;-61
2024/03/08 05:45:25;;;;;;;30.17;11.70;;;;;;;1.13;100.00;98494.00;5071455;28;20508;-60
2024/03/08 05:47:51;;;;;;;30.05;11.68;;;;;;;1.10;100.00;98499.63;5068523;28;20032;-60
2024/03/08 05:50:17;;;;;;;26.98;11.80;;;;;;;1.04;100.00;98493.06;5073149;28;20035;-62
2024/03/08 05:52:43;;;;;;;27.73;12.13;;;;;;;1.06;100.00;98492.94;5071882;28;20021;-61
2024/03/08 05:55:09;;;;;;;30.75;12.57;;;;;;;1.07;100.00;98506.09;5069036;28;20440;-60
2024/03/08 05:57:37;;;;;;;31.52;13.35;;;;;;;1.09;100.00;98495.28;5071771;28;20032;-59
2024/03/08 06:00:04;;;;;;;28.40;12.05;;;;;;;1.11;100.00;98493.31;5076106;28;20074;-60
2024/03/08 06:02:29;;;;;;;29.33;12.57;;;;;;;1.11;100.00;98498.66;5069482;28;20028;-60
2024/03/08 06:04:54;;;;;;;31.13;12.82;;;;;;;1.14;100.00;98494.84;5077889;28;20028;-60
2024/03/08 06:07:20;;;;;;;27.08;12.05;;;;;;;1.15;100.00;98497.34;5071011;28;20028;-60
2024/03/08 06:09:48;;;;;;;29.25;12.60;;;;;;;1.18;100.00;98502.38;5069690;28;20024;-60
2024/03/08 06:12:18;;;;;;;30.48;12.38;;;;;;;1.25;100.00;98497.28;5073290;28;20032;-60
2024/03/08 06:14:44;;;;;;;26.67;11.27;;;;;;;1.30;100.00;98487.81;5074025;28;20025;-60
2024/03/08 06:17:11;;;;;;;27.50;12.88;;;;;;;1.37;100.00;98490.72;5072792;28;20368;-60
2024/03/08 06:19:36;;;;;;;27.58;12.32;;;;;;;1.48;100.00;98498.50;5078380;28;20107;-60
2024/03/08 06:22:05;;;;;;;28.02;11.65;;;;;;;2.09;100.00;98485.28;5075084;28;20523;-60
2024/03/08 06:24:36;;;;;;;25.50;11.80;;;;;;;2.42;100.00;98476.47;5076598;28;20036;-60
2024/03/08 06:27:01;;;;;;;25.08;12.05;;;;;;;3.24;100.00;98483.91;5074540;28;20597;-60
2024/03/08 06:29:27;;;;;;;26.70;12.18;;;;;;;4.20;100.00;98467.16;5061352;28;20032;-60
2024/03/08 06:31:53;;;;;;;24.55;10.63;;;;;;;5.42;100.00;98473.81;5072700;28;20510;-60
2024/03/08 06:34:18;;;;;;;26.40;11.40;;;;;;;5.83;100.00;98468.09;5076366;28;20019;-60
2024/03/08 06:36:44;;;;;;;21.08;10.95;;;;;;;5.88;100.00;98472.91;5076863;28;20115;-60
2024/03/08 06:39:09;;;;;;;23.55;10.75;;;;;;;6.18;100.00;98473.00;5065520;28;20043;-60
2024/03/08 06:41:38;;;;;;;22.35;10.90;;;;;;;7.27;100.00;98467.81;5076083;28;20036;-60
2024/03/08 06:44:03;;;;;;;20.38;10.07;;;;;;;7.59;100.00;98478.06;5073359;28;20448;-60
2024/03/08 06:46:29;;;;;;;20.38;11.10;;;;;;;7.98;100.00;98479.47;5074122;28;20052;-61
2024/03/08 06:48:54;;;;;;;22.92;11.38;;;;;;;7.88;100.00;98473.56;5076072;28;20021;-60
2024/03/08 06:51:20;;;;;;;22.15;11.18;;;;;;;8.27;100.00;98481.13;5074371;28;20040;-60
2024/03/08 06:53:45;;;;;;;23.92;11.82;;;;;;;8.43;100.00;98484.59;5069560;28;20110;-61
2024/03/08 06:56:11;;;;;;;22.92;10.93;;;;;;;8.16;100.00;98476.28;5074753;28;20036;-61
2024/03/08 06:58:37;;;;;;;20.77;10.98;;;;;;;8.76;100.00;98479.41;5055946;28;20024;-60
2024/03/08 07:01:07;;;;;;;18.95;9.73;;;;;;;9.82;100.00;98468.94;5074564;28;20472;-61
2024/03/08 07:03:32;;;;;;;20.23;11.25;;;;;;;11.62;98.12;98471.97;5066898;28;20119;-61
2024/03/08 07:05:59;;;;;;;22.10;10.75;;;;;;;13.16;84.69;98460.53;5071396;28;20100;-61
2024/03/08 07:08:26;;;;;;;20.45;10.60;;;;;;;13.68;76.40;98462.81;5068476;28;20040;-61
2024/03/08 07:10:53;;;;;;;22.17;11.35;;;;;;;13.08;73.07;98467.13;5072226;28;20066;-61
2024/03/08 07:13:19;;;;;;;21.23;11.35;;;;;;;13.62;71.41;98467.25;5073043;28;20033;-61
2024/03/08 07:15:45;;;;;;;19.40;11.00;;;;;;;13.27;73.03;98470.66;5073046;28;20022;-61
2024/03/08 07:18:14;;;;;;;20.13;11.30;;;;;;;14.14;68.91;98463.94;5068630;28;20063;-60
2024/03/08 07:20:39;;;;;;;19.00;11.35;;;;;;;13.48;70.26;98454.94;5067310;28;20036;-60
2024/03/08 07:23:05;;;;;;;18.63;10.77;;;;;;;13.33;68.88;98458.03;5066639;28;20056;-61
2024/03/08 07:25:30;;;;;;;18.70;10.57;;;;;;;14.78;66.63;98459.50;5073541;28;20036;-60
2024/03/08 07:27:56;;;;;;;18.05;11.13;;;;;;;14.61;64.42;98440.31;5067737;28;20455;-60
2024/03/08 07:33:10;;;;;;;18.45;10.95;;;;;;;14.19;65.05;98451.28;5073244;28;20036;-60
2024/03/08 07:35:36;;;;;;;20.75;10.93;;;;;;;12.60;67.62;98459.75;5072571;28;20109;-60
2024/03/08 07:38:04;;;;;;;19.55;11.15;;;;;;;10.52;74.74;98446.84;5048371;28;20111;-59
2024/03/08 07:40:30;;;;;;;20.58;11.95;;;;;;;9.06;84.37;98450.25;5070214;28;20123;-60
2024/03/08 07:42:55;;;;;;;21.65;10.85;;;;;;;8.73;95.79;98455.53;5071916;28;20104;-59
2024/03/08 07:45:21;;;;;;;24.98;12.18;;;;;;;7.76;100.00;98467.06;5071640;28;20044;-59
2024/03/08 07:47:47;;;;;;;19.85;10.98;;;;;;;7.30;100.00;98462.88;5049961;28;20017;-60
2024/03/08 07:50:16;;;;;;;19.73;11.60;;;;;;;7.13;100.00;98459.59;5071058;28;20045;-60
2024/03/08 07:52:42;;;;;;;21.80;11.48;;;;;;;6.68;100.00;98456.16;5074111;28;20020;-60
2024/03/08 07:55:08;;;;;;;20.90;10.80;;;;;;;6.49;100.00;98454.03;5066746;28;20437;-60
2024/03/08 07:57:33;;;;;;;19.73;10.73;;;;;;;6.39;100.00;98442.72;5068834;28;20509;-59
2024/03/08 07:59:58;;;;;;;23.23;11.27;;;;;;;6.21;100.00;98446.63;5074376;28;20100;-59
2024/03/08 08:02:24;;;;;;;22.83;10.35;;;;;;;6.18;100.00;98444.28;5070931;28;20116;-59
2024/03/08 08:04:49;;;;;;;23.30;11.30;;;;;;;5.85;100.00;98446.44;5073598;28;20471;-60
2024/03/08 08:07:15;;;;;;;20.17;10.48;;;;;;;5.84;100.00;98442.94;5054223;28;20028;-59
2024/03/08 08:09:42;;;;;;;22.10;11.48;;;;;;;5.88;100.00;98435.34;5142045;22;20087;-52
2024/03/08 08:12:11;;;;;;;21.05;10.80;;;;;;;6.08;100.00;98436.50;5071420;28;20028;-52
2024/03/08 08:14:41;;;;;;;;;;;;;;;5.67;100.00;98441.41;5077769;28;20491;-52
2024/03/08 08:17:08;;;;;;;19.83;10.10;;;;;;;5.86;100.00;98443.56;5061435;28;19916;-52
2024/03/08 08:19:35;;;;;;;23.50;10.73;;;;;;;5.68;100.00;98440.38;5053154;28;20456;-60
2024/03/08 08:22:02;;;;;;;21.90;10.63;;;;;;;5.87;100.00;98447.09;5070805;28;20033;-61
2024/03/08 08:24:28;;;;;;;23.52;11.95;;;;;;;5.62;100.00;98449.16;5060005;28;20056;-59
2024/03/08 08:26:53;;;;;;;24.73;10.70;;;;;;;5.29;100.00;98449.38;5063436;28;20044;-59
2024/03/08 08:29:20;;;;;;;25.48;10.73;;;;;;;5.01;100.00;98441.88;5059303;28;20096;-59
2024/03/08 08:31:46;;;;;;;19.20;10.18;;;;;;;5.07;100.00;98436.81;5054250;28;20035;-59
2024/03/08 08:34:11;;;;;;;24.13;10.98;;;;;;;4.82;100.00;98444.97;5057957;28;20056;-59
2024/03/08 08:36:38;;;;;;;22.60;10.63;;;;;;;5.00;100.00;98442.91;5056583;28;20118;-59
2024/03/08 08:39:11;;;;;;;24.23;10.07;;;;;;;5.22;100.00;98429.69;5048913;28;20392;-52
2024/03/08 08:41:36;;;;;;;22.27;10.20;;;;;;;4.94;100.00;98437.38;5061501;28;20364;-52
2024/03/08 08:44:02;;;;;;;29.50;11.02;;;;;;;5.07;100.00;98434.13;5064471;28;20029;-52
2024/03/08 08:46:28;;;;;;;22.85;10.35;;;;;;;5.44;100.00;98428.00;5058773;28;20033;-53
2024/03/08 08:48:54;;;;;;;22.92;10.23;;;;;;;5.81;100.00;98429.84;5061463;28;20079;-54
2024/03/08 08:51:19;;;;;;;20.98;10.45;;;;;;;5.78;100.00;98422.16;5062269;28;20429;-59
2024/03/08 08:53:47;;;;;;;22.55;10.35;;;;;;;6.24;100.00;98405.97;5053789;28;20048;-59
2024/03/08 08:56:13;;;;;;;18.55;10.05;;;;;;;6.46;100.00;98416.78;5056040;28;20052;-59
2024/03/08 08:58:41;;;;;;;22.40;10.85;;;;;;;6.59;100.00;98414.25;5065124;28;20129;-59
2024/03/08 09:01:07;;;;;;;22.98;11.35;;;;;;;6.43;100.00;98406.41;5056435;28;20032;-59
2024/03/08 09:03:34;;;;;;;21.33;9.93;;;;;;;6.69;100.00;98406.75;5056594;28;20120;-52
2024/03/08 09:06:00;;;;;;;23.60;10.82;;;;;;;6.20;100.00;98410.03;5060636;28;20112;-52
2024/03/08 09:08:26;;;;;;;25.67;11.98;;;;;;;6.22;100.00;98418.72;5056796;28;20151;-53
2024/03/08 09:10:51;;;;;;;22.38;9.90;;;;;;;6.14;100.00;98408.91;5052999;28;20040;-53
2024/03/08 09:13:18;;;;;;;20.00;10.57;;;;;;;5.78;100.00;98413.28;5055458;28;20045;-53
2024/03/08 09:15:44;;;;;;;28.70;10.63;;;;;;;6.02;100.00;98407.69;5060641;28;20376;-53
2024/03/08 09:18:10;;;;;;;22.08;10.13;;;;;;;5.92;100.00;98404.41;5058076;28;20104;-53
2024/03/08 09:20:36;;;;;;;20.60;9.90;;;;;;;5.92;100.00;98409.78;5052325;28;20040;-53
2024/03/08 09:23:03;;;;;;;25.17;10.98;;;;;;;6.03;100.00;98400.50;5065583;28;20460;-60
2024/03/08 09:25:29;;;;;;;21.90;10.95;;;;;;;6.07;100.00;98393.72;5062927;28;20028;-53
2024/03/08 09:27:55;;;;;;;16.73;9.25;;;;;;;6.17;100.00;98404.19;5056704;28;20487;-53
2024/03/08 09:30:21;;;;;;;21.92;11.02;;;;;;;6.09;100.00;98391.69;5060098;28;20028;-54
2024/03/08 09:32:47;;;;;;;19.88;9.55;;;;;;;6.29;100.00;98394.66;5060766;28;20032;-53
2024/03/08 09:35:13;;;;;;;20.60;10.25;;;;;;;6.09;100.00;98392.50;5068079;28;20024;-54
2024/03/08 09:37:38;;;;;;;26.55;10.77;;;;;;;6.17;100.00;98383.53;5055014;28;20392;-53
2024/03/08 09:40:09;;;;;;;21.40;10.93;;;;;;;6.32;100.00;98388.91;5061224;28;20499;-53
2024/03/08 09:42:37;;;;;;;21.45;10.48;;;;;;;6.51;100.00;98376.75;5053242;28;20025;-53
2024/03/08 09:45:07;;;;;;;20.38;10.15;;;;;;;6.45;100.00;98382.88;5058375;28;20104;-53
2024/03/08 09:47:34;;;;;;;23.58;10.85;;;;;;;6.63;100.00;98383.31;5052510;28;20510;-53
2024/03/08 09:50:01;;;;;;;23.33;11.02;;;;;;;6.81;100.00;98377.50;5055671;28;20025;-53
2024/03/08 09:52:26;;;;;;;22.50;11.60;;;;;;;7.08;100.00;98375.94;5064827;28;20043;-60
2024/03/08 09:54:52;;;;;;;24.35;11.13;;;;;;;7.47;100.00;98380.03;5068125;28;20021;-61
2024/03/08 09:57:20;;;;;;;23.08;10.25;;;;;;;7.41;100.00;98375.41;5049985;28;20048;-60
2024/03/08 09:59:48;;;;;;;20.33;10.95;;;;;;;7.57;100.00;98374.31;5054740;28;20188;-61
2024/03/08 10:02:16;;;;;;;20.88;11.35;;;;;;;7.65;100.00;98366.94;5062523;28;20379;-61
2024/03/08 10:04:42;;;;;;;21.02;10.88;;;;;;;7.84;100.00;98368.09;5057685;28;20029;-61
2024/03/08 10:07:08;;;;;;;21.40;10.27;;;;;;;9.15;100.00;98364.56;5065050;28;20031;-60
2024/03/08 10:09:35;;;;;;;21.67;10.25;;;;;;;9.34;100.00;98352.94;5056041;28;20040;-61
2024/03/08 10:12:01;;;;;;;19.17;9.98;;;;;;;9.44;100.00;98347.16;5048515;28;20028;-61
2024/03/08 10:14:27;;;;;;;20.88;11.20;;;;;;;10.71;100.00;98342.31;5059411;28;20364;-60
2024/03/08 10:16:53;;;;;;;20.75;10.27;;;;;;;10.66;100.00;98342.13;5053484;28;20025;-60
2024/03/08 10:19:20;;;;;;;22.35;10.90;;;;;;;13.14;92.44;98335.81;5057419;28;20076;-53
2024/03/08 10:21:49;;;;;;;22.52;10.98;;;;;;;14.63;81.42;98310.22;5063140;28;20530;-53
2024/03/08 10:24:14;;;;;;;19.45;10.45;;;;;;;15.47;76.08;98331.38;5056157;28;20115;-54
2024/03/08 10:26:40;;;;;;;19.48;10.93;;;;;;;14.17;74.41;98328.28;5055116;28;20103;-53
2024/03/08 10:29:06;;;;;;;17.77;10.10;;;;;;;15.19;72.30;98320.53;5071803;28;20078;-53
2024/03/08 10:31:33;;;;;;;18.30;10.80;;;;;;;13.87;73.28;98317.53;5065286;28;20059;-54
2024/03/08 10:33:58;;;;;;;17.67;10.25;;;;;;;15.33;69.71;98303.63;5058273;28;20037;-54
2024/03/08 10:36:24;;;;;;;23.33;10.70;;;;;;;16.58;66.39;98302.47;5053973;28;20021;-54
2024/03/08 10:38:53;;;;;;;20.88;11.07;;;;;;;17.95;63.15;98299.44;5054987;28;20420;-53
2024/03/08 10:41:18;;;;;;;;;;;;;;;19.01;58.81;98309.25;5058498;28;20024;-52
2024/03/08 10:44:08;;;;;;;19.33;11.30;;;;;;;16.68;60.25;98308.06;5065067;28;20333;-53
2024/03/08 10:46:55;;;;;;;20.75;11.50;;;;;;;15.96;62.58;98318.03;5059756;28;20028;-52
2024/03/08 10:49:30;;;;;;;20.20;11.45;;;;;;;14.03;66.03;98307.84;5061923;28;20035;-53
2024/03/08 10:51:58;;;;;;;19.90;11.05;;;;;;;13.85;66.59;98303.34;5059818;28;20028;-54
2024/03/08 10:54:26;;;;;;;18.60;11.32;;;;;;;14.13;68.13;98305.34;5062762;28;20380;-54
2024/03/08 10:57:01;;;;;;;20.45;11.38;;;;;;;14.15;67.75;98300.50;5099299;22;20041;-52
2024/03/08 10:59:27;;;;;;;19.38;10.85;;;;;;;13.51;69.56;98296.84;5054526;28;20373;-59
2024/03/08 11:01:54;;;;;;;20.08;11.50;;;;;;;12.75;71.53;98299.19;5054732;28;20411;-60
2024/03/08 11:04:22;;;;;;;21.90;11.40;;;;;;;12.67;72.97;98297.63;5052394;28;20024;-60
2024/03/08 11:06:52;;;;;;;22.80;12.87;;;;;;;11.92;75.05;98287.06;5049354;28;20025;-59
2024/03/08 11:09:29;;;;;;;21.50;11.73;;;;;;;12.77;72.86;98283.50;5059134;28;20115;-59
2024/03/08 11:12:25;;;;;;;22.60;10.90;;;;;;;12.89;72.10;98288.97;5055962;28;20036;-60
2024/03/08 11:14:54;;;;;;;24.20;11.15;;;;;;;15.17;69.32;98282.66;5050350;28;20072;-52
2024/03/08 11:17:28;;;;;;;23.05;11.38;;;;;;;14.80;65.51;98279.50;5050759;28;20024;-60
2024/03/08 11:19:56;;;;;;;19.60;10.90;;;;;;;14.33;68.21;98274.19;5060386;28;20075;-64